Upstream stations:
Downstream station:
SHEF ID: IOLK1 NEOSHO RIVER NEAR IOLA
STATION TYPE:
Regulating: Stage = 15.00, Flow = 18228
PRECIP STAGE RIV-FLOW BAT-LOAD
in ft cfs volt
Ccp-Rev Ccp-Rev Ccp-Rev Ccp-Rev
(US/Central)
04/05 00:00 0.00 8.29 2365 12.63
04/05 01:00 0.00 8.29 2365 12.61
04/05 02:00 0.00 8.29 2365 12.59
04/05 03:00 0.00 8.28 2341 12.57
04/05 04:00 0.00 8.28 2341 12.55
04/05 05:00 0.00 8.28 2341 12.53
04/05 06:00 0.00 8.28 2341 12.50
04/05 07:00 0.00 8.29 2365 12.49
04/05 08:00 0.00 8.28 2341 12.48
04/05 09:00 0.00 8.29 2365 12.66
04/05 10:00 0.00 8.29 2365 13.71
04/05 11:00 0.00 8.29 2365 13.55
04/05 12:00 0.00 8.29 2365 13.21
04/05 13:00 0.00 8.29 2365 13.22
04/05 14:00 0.00 8.29 2365 13.15
04/05 15:00 0.00 8.30 2390 13.10
04/05 16:00 0.00 8.29 2365 13.07
04/05 17:00 0.00 8.29 2365 13.03
04/05 18:00 0.00 8.28 2341 13.01
04/05 19:00 0.00 8.29 2365 12.99
04/05 20:00 0.00 8.31 2414 12.77
04/05 21:00 0.00 8.36 2538 12.71
04/05 22:00 0.00 8.43 2716 12.69
04/05 23:00 0.00 8.46 2795 12.64